createdAt,value
2022-07-25T00:01:58.923Z,19.15
2022-07-25T00:04:03.485Z,19.24
2022-07-25T00:06:06.712Z,19.31
2022-07-25T00:08:16.084Z,19.45
2022-07-25T00:10:18.946Z,19.53
2022-07-25T00:12:22.138Z,19.50
2022-07-25T00:14:24.840Z,19.21
2022-07-25T00:16:27.553Z,19.45
2022-07-25T00:18:30.222Z,19.12
2022-07-25T00:20:33.241Z,19.24
2022-07-25T00:22:36.033Z,18.90
2022-07-25T00:24:38.700Z,19.07
2022-07-25T00:26:41.294Z,19.02
2022-07-25T00:28:44.466Z,19.42
2022-07-25T00:30:47.980Z,18.84
2022-07-25T00:32:50.625Z,19.28
2022-07-25T00:34:53.291Z,19.28
2022-07-25T00:36:55.889Z,19.45
2022-07-25T00:38:58.536Z,19.40
2022-07-25T00:41:01.148Z,19.30
2022-07-25T00:43:03.960Z,19.41
2022-07-25T00:45:07.249Z,19.38
2022-07-25T00:47:09.916Z,19.20
2022-07-25T00:49:12.550Z,18.88
2022-07-25T00:51:17.059Z,19.23
2022-07-25T00:53:20.150Z,19.26
2022-07-25T00:55:24.803Z,19.33
2022-07-25T00:57:28.515Z,19.25
2022-07-25T00:59:31.110Z,19.25
2022-07-25T01:01:35.309Z,19.21
2022-07-25T01:03:38.145Z,19.14
2022-07-25T01:05:40.828Z,18.94
2022-07-25T01:07:43.749Z,19.23
2022-07-25T01:09:46.726Z,18.84
2022-07-25T01:11:49.295Z,19.22
2022-07-25T01:13:52.091Z,19.06
2022-07-25T01:15:54.781Z,18.96
2022-07-25T01:17:57.380Z,18.52
2022-07-25T01:20:00.009Z,18.83
2022-07-25T01:22:02.696Z,19.06
2022-07-25T01:24:06.767Z,18.81
2022-07-25T01:26:09.659Z,19.00
2022-07-25T01:28:12.706Z,18.12
2022-07-25T01:30:16.982Z,18.22
2022-07-25T01:32:19.654Z,18.60
2022-07-25T01:34:22.355Z,18.34
2022-07-25T01:36:25.052Z,18.99
2022-07-25T01:38:27.767Z,18.67
2022-07-25T01:40:30.473Z,18.58
2022-07-25T01:42:33.501Z,18.71
2022-07-25T01:44:36.122Z,18.79
2022-07-25T01:46:38.774Z,18.52
2022-07-25T01:48:41.560Z,18.49
2022-07-25T01:50:44.225Z,18.43
2022-07-25T01:52:47.440Z,18.74
2022-07-25T01:54:50.088Z,18.60
2022-07-25T01:56:53.444Z,18.71
2022-07-25T01:58:56.038Z,18.60
2022-07-25T02:00:58.698Z,18.53
2022-07-25T02:03:29.827Z,18.48
2022-07-25T02:05:32.449Z,18.34
2022-07-25T02:07:35.821Z,18.61
2022-07-25T02:09:40.000Z,17.64
2022-07-25T02:11:42.605Z,18.47
2022-07-25T02:13:45.458Z,18.55
2022-07-25T02:15:48.162Z,18.29
2022-07-25T02:17:50.763Z,18.33
2022-07-25T02:19:53.580Z,18.27
2022-07-25T02:21:56.217Z,18.45
2022-07-25T02:23:58.797Z,18.50
2022-07-25T02:26:01.418Z,18.13
2022-07-25T02:28:04.750Z,18.30
2022-07-25T02:30:08.317Z,18.47
2022-07-25T02:32:10.983Z,18.32
2022-07-25T02:34:13.726Z,17.94
2022-07-25T02:36:16.347Z,18.27
2022-07-25T02:38:19.894Z,17.24
2022-07-25T02:40:22.556Z,18.20
2022-07-25T02:42:25.239Z,18.29
2022-07-25T02:44:27.798Z,17.67
2022-07-25T02:46:56.354Z,18.18
2022-07-25T02:48:59.298Z,18.26
2022-07-25T02:51:01.910Z,18.16
2022-07-25T02:53:05.242Z,18.28
2022-07-25T02:55:09.909Z,18.15
2022-07-25T02:57:12.647Z,18.03
2022-07-25T02:59:15.241Z,18.22
2022-07-25T03:01:17.935Z,17.94
2022-07-25T03:03:20.608Z,17.98
2022-07-25T03:05:23.308Z,17.91
2022-07-25T03:07:25.909Z,18.01
2022-07-25T03:09:28.478Z,17.40
2022-07-25T03:11:31.154Z,18.30
2022-07-25T03:13:33.858Z,18.24
2022-07-25T03:15:36.575Z,18.25
2022-07-25T03:17:39.590Z,18.13
2022-07-25T03:19:42.427Z,18.41
2022-07-25T03:21:46.207Z,17.74
2022-07-25T03:23:52.468Z,18.01
2022-07-25T03:25:56.453Z,18.36
2022-07-25T03:27:59.036Z,18.32
2022-07-25T03:30:01.736Z,18.31
2022-07-25T03:32:05.185Z,18.32
2022-07-25T03:34:08.299Z,18.20
2022-07-25T03:36:11.779Z,18.30
2022-07-25T03:38:14.361Z,18.27
2022-07-25T03:40:17.136Z,18.37
2022-07-25T03:42:24.955Z,17.64
2022-07-25T03:44:29.232Z,18.48
2022-07-25T03:46:31.950Z,17.82
2022-07-25T03:48:34.754Z,17.84
2022-07-25T03:50:37.385Z,17.67
2022-07-25T03:52:40.072Z,18.00
2022-07-25T03:54:42.653Z,17.99
2022-07-25T03:56:50.055Z,18.35
2022-07-25T03:58:52.657Z,17.98
2022-07-25T04:00:55.369Z,17.95
2022-07-25T04:02:57.986Z,17.95
2022-07-25T04:05:01.860Z,18.56
2022-07-25T04:07:04.436Z,18.40
2022-07-25T04:09:08.351Z,18.59
2022-07-25T04:11:10.971Z,18.42
2022-07-25T04:13:13.546Z,18.44
2022-07-25T04:15:16.843Z,17.97
2022-07-25T04:17:19.506Z,18.56
2022-07-25T04:19:23.754Z,18.55
2022-07-25T04:21:28.848Z,18.72
2022-07-25T04:23:31.939Z,18.36
2022-07-25T04:25:34.615Z,18.57
2022-07-25T04:27:37.224Z,18.41
2022-07-25T04:29:39.861Z,18.97
2022-07-25T04:31:42.628Z,18.89
2022-07-25T04:33:45.318Z,19.09
2022-07-25T04:35:48.424Z,18.68
2022-07-25T04:37:50.978Z,18.68
2022-07-25T04:39:53.546Z,19.34
2022-07-25T04:41:56.339Z,19.58
2022-07-25T04:43:58.983Z,19.17
2022-07-25T04:46:02.064Z,19.52
2022-07-25T04:48:05.450Z,19.44
2022-07-25T04:50:08.719Z,19.60
2022-07-25T04:52:12.282Z,19.75
2022-07-25T04:54:27.954Z,19.51
2022-07-25T04:56:33.657Z,19.72
2022-07-25T04:58:36.501Z,19.51
2022-07-25T05:00:39.254Z,19.92
2022-07-25T05:02:42.328Z,20.17
2022-07-25T05:04:45.737Z,20.19
2022-07-25T05:06:48.598Z,20.06
2022-07-25T05:08:51.236Z,20.29
2022-07-25T05:11:06.468Z,19.91
2022-07-25T05:13:09.703Z,20.54
2022-07-25T05:15:12.679Z,20.83
2022-07-25T05:17:16.071Z,20.80
2022-07-25T05:19:19.443Z,20.64
2022-07-25T05:21:22.035Z,21.06
2022-07-25T05:23:26.102Z,21.38
2022-07-25T05:25:30.782Z,21.31
2022-07-25T05:27:33.438Z,21.21
2022-07-25T05:29:36.022Z,21.54
2022-07-25T05:31:38.667Z,21.39
2022-07-25T05:33:42.587Z,21.36
2022-07-25T05:35:45.230Z,21.96
2022-07-25T05:37:47.911Z,21.98
2022-07-25T05:39:50.490Z,22.30
2022-07-25T05:42:03.505Z,22.31
2022-07-25T05:44:06.617Z,22.49
2022-07-25T05:46:09.536Z,22.65
2022-07-25T05:48:12.283Z,22.64
2022-07-25T05:50:14.921Z,22.55
2022-07-25T05:52:17.496Z,22.96
2022-07-25T05:54:20.233Z,22.38
2022-07-25T05:56:23.094Z,22.98
2022-07-25T05:58:29.879Z,23.30
2022-07-25T06:00:33.111Z,22.81
2022-07-25T06:02:39.018Z,22.99
2022-07-25T06:04:41.825Z,23.63
2022-07-25T06:06:50.989Z,23.31
2022-07-25T06:08:53.576Z,23.86
2022-07-25T06:11:00.888Z,23.93
2022-07-25T06:13:04.650Z,23.72
2022-07-25T06:15:12.638Z,24.01
2022-07-25T06:18:21.317Z,24.54
2022-07-25T06:20:24.594Z,24.60
2022-07-25T06:22:27.330Z,24.51
2022-07-25T06:24:30.189Z,24.99
2022-07-25T06:26:33.377Z,25.02
2022-07-25T06:28:37.517Z,25.06
2022-07-25T06:30:46.538Z,25.58
2022-07-25T06:32:50.381Z,25.72
2022-07-25T06:34:53.025Z,25.79
2022-07-25T06:37:03.837Z,25.64
2022-07-25T06:39:06.464Z,25.63
2022-07-25T06:41:09.044Z,26.25
2022-07-25T06:43:11.653Z,25.60
2022-07-25T06:45:17.165Z,26.66
2022-07-25T06:47:35.853Z,26.19
2022-07-25T06:49:40.021Z,26.23
2022-07-25T06:51:45.255Z,27.00
2022-07-25T06:53:47.958Z,27.10
2022-07-25T06:55:50.844Z,27.17
2022-07-25T06:57:53.435Z,26.75
2022-07-25T06:59:56.036Z,27.44
2022-07-25T07:01:58.709Z,27.39
2022-07-25T07:04:01.528Z,27.22
2022-07-25T07:06:06.488Z,27.93
2022-07-25T07:08:29.191Z,27.89
2022-07-25T07:10:32.362Z,28.02
2022-07-25T07:12:34.937Z,28.33
2022-07-25T07:14:38.191Z,28.43
2022-07-25T07:16:42.301Z,28.50
2022-07-25T07:18:49.085Z,28.56
2022-07-25T07:20:52.871Z,28.98
2022-07-25T07:22:55.812Z,29.07
2022-07-25T07:24:59.765Z,28.93
2022-07-25T07:27:03.686Z,28.98
2022-07-25T07:29:06.597Z,29.26
2022-07-25T07:31:17.948Z,29.66
2022-07-25T07:33:39.342Z,29.72
2022-07-25T07:35:45.210Z,29.95
2022-07-25T07:37:47.940Z,30.08
2022-07-25T07:39:50.581Z,29.64
2022-07-25T07:41:53.264Z,30.36
2022-07-25T07:43:56.575Z,30.47
2022-07-25T07:46:21.916Z,30.57
2022-07-25T07:48:24.551Z,31.05
2022-07-25T07:50:29.217Z,31.18
2022-07-25T07:52:32.002Z,31.68
2022-07-25T07:54:57.691Z,31.84
2022-07-25T07:57:02.098Z,32.46
2022-07-25T07:59:05.403Z,32.35
2022-07-25T08:01:08.546Z,33.53
2022-07-25T08:03:11.590Z,34.13
2022-07-25T08:05:25.190Z,34.39
2022-07-25T08:07:28.531Z,34.98
2022-07-25T08:09:31.150Z,35.53
2022-07-25T08:11:33.770Z,35.36
2022-07-25T08:13:38.265Z,35.56
2022-07-25T08:15:42.255Z,36.03
2022-07-25T08:17:47.495Z,36.31
2022-07-25T08:19:50.090Z,36.15
2022-07-25T08:21:52.718Z,36.13
2022-07-25T08:23:55.634Z,36.93
2022-07-25T08:25:58.338Z,37.29
2022-07-25T08:28:01.025Z,37.01
2022-07-25T08:30:06.984Z,37.75
2022-07-25T08:32:10.605Z,37.46
2022-07-25T08:34:15.391Z,37.89
2022-07-25T08:36:23.059Z,37.99
2022-07-25T08:38:35.488Z,38.02
2022-07-25T08:40:38.243Z,37.93
2022-07-25T08:42:49.604Z,37.92
2022-07-25T08:45:00.231Z,37.84
2022-07-25T08:47:04.306Z,37.78
2022-07-25T08:49:08.173Z,38.04
2022-07-25T08:51:13.078Z,37.91
2022-07-25T08:53:35.905Z,36.90
2022-07-25T08:55:46.875Z,37.67
2022-07-25T08:58:17.941Z,37.22
2022-07-25T09:00:33.374Z,36.83
2022-07-25T09:02:36.094Z,35.93
2022-07-25T09:04:38.775Z,35.88
2022-07-25T09:06:52.404Z,35.98
2022-07-25T09:09:00.487Z,35.33
2022-07-25T09:11:03.494Z,35.56
2022-07-25T09:13:16.311Z,35.38
2022-07-25T09:15:29.682Z,35.05
2022-07-25T09:17:32.420Z,35.04
2022-07-25T09:19:35.196Z,34.83
2022-07-25T09:21:40.036Z,35.03
2022-07-25T09:23:42.608Z,34.84
2022-07-25T09:25:46.351Z,34.89
2022-07-25T09:27:52.247Z,34.78
2022-07-25T09:29:54.861Z,34.76
2022-07-25T09:31:59.055Z,34.73
2022-07-25T09:34:03.496Z,34.51
2022-07-25T09:36:12.244Z,34.74
2022-07-25T09:38:17.940Z,34.15
2022-07-25T09:40:20.562Z,34.51
2022-07-25T09:42:33.120Z,34.45
2022-07-25T09:44:35.736Z,34.31
2022-07-25T09:46:38.493Z,34.44
2022-07-25T09:48:45.480Z,34.34
2022-07-25T09:50:48.330Z,34.33
2022-07-25T09:53:00.765Z,34.20
2022-07-25T09:55:07.973Z,33.77
2022-07-25T09:57:10.887Z,34.10
2022-07-25T09:59:13.496Z,34.34
2022-07-25T10:01:25.534Z,34.45
2022-07-25T10:04:01.323Z,34.36
2022-07-25T10:06:40.526Z,34.37
2022-07-25T10:08:43.740Z,34.25
2022-07-25T10:10:48.491Z,34.36
2022-07-25T10:13:11.206Z,34.62
2022-07-25T10:15:14.808Z,34.46
2022-07-25T10:17:23.283Z,34.45
2022-07-25T10:19:52.898Z,34.43
2022-07-25T10:21:56.896Z,34.51
2022-07-25T10:24:06.835Z,34.49
2022-07-25T10:26:16.394Z,34.53
2022-07-25T10:28:42.643Z,34.52
2022-07-25T10:30:45.379Z,34.35
2022-07-25T10:32:59.141Z,34.74
2022-07-25T10:35:12.905Z,34.62
2022-07-25T10:37:21.116Z,34.68
2022-07-25T10:39:24.143Z,34.47
2022-07-25T10:41:29.390Z,34.49
2022-07-25T10:43:38.350Z,34.47
2022-07-25T10:45:51.835Z,34.87
2022-07-25T10:47:55.891Z,34.76
2022-07-25T10:50:34.802Z,34.97
2022-07-25T10:52:29.719Z,34.43
2022-07-25T10:54:39.456Z,35.12
2022-07-25T10:56:55.851Z,35.15
2022-07-25T10:59:02.323Z,35.25
2022-07-25T11:01:05.979Z,35.04
2022-07-25T11:03:18.046Z,35.77
2022-07-25T11:05:21.212Z,35.86
2022-07-25T11:07:23.897Z,36.03
2022-07-25T11:09:28.614Z,35.92
2022-07-25T11:11:41.120Z,36.00
2022-07-25T11:13:44.620Z,35.63
2022-07-25T11:15:47.808Z,35.54
2022-07-25T11:17:52.945Z,35.27
2022-07-25T11:20:05.456Z,35.28
2022-07-25T11:22:08.528Z,35.40
2022-07-25T11:24:11.292Z,35.15
2022-07-25T11:26:14.217Z,35.13
2022-07-25T11:28:17.005Z,35.51
2022-07-25T11:30:20.310Z,35.51
2022-07-25T11:32:23.492Z,35.27
2022-07-25T11:34:36.689Z,35.75
2022-07-25T11:36:40.025Z,35.53
2022-07-25T11:38:48.321Z,35.43
2022-07-25T11:40:50.961Z,35.22
2022-07-25T11:43:04.626Z,35.40
2022-07-25T11:45:24.159Z,35.62
2022-07-25T11:47:28.930Z,35.58
2022-07-25T11:49:32.031Z,35.79
2022-07-25T11:51:39.631Z,35.96
2022-07-25T11:53:49.760Z,35.68
2022-07-25T11:55:52.469Z,35.81
2022-07-25T11:58:01.417Z,35.71
2022-07-25T12:00:20.822Z,34.80
2022-07-25T12:02:27.381Z,35.32
2022-07-25T12:04:31.212Z,34.80
2022-07-25T12:06:33.838Z,35.34
2022-07-25T12:08:40.848Z,35.55
2022-07-25T12:10:45.013Z,35.41
2022-07-25T12:12:56.454Z,35.39
2022-07-25T12:14:59.028Z,35.55
2022-07-25T12:17:01.761Z,35.31
2022-07-25T12:19:10.045Z,35.39
2022-07-25T12:21:13.114Z,35.84
2022-07-25T12:23:15.907Z,35.71
2022-07-25T12:25:18.995Z,35.73
2022-07-25T12:27:22.048Z,35.71
2022-07-25T12:29:24.610Z,35.19
2022-07-25T12:31:28.829Z,35.52
2022-07-25T12:33:32.885Z,35.62
2022-07-25T12:35:37.446Z,35.62
2022-07-25T12:37:42.033Z,35.41
2022-07-25T12:39:45.287Z,35.92
2022-07-25T12:41:48.543Z,35.75
2022-07-25T12:43:58.951Z,35.69
2022-07-25T12:46:01.670Z,35.77
2022-07-25T12:48:05.078Z,35.80
2022-07-25T12:50:08.772Z,35.29
2022-07-25T12:52:11.804Z,35.84
2022-07-25T12:54:21.591Z,35.97
2022-07-25T12:56:24.771Z,35.98
2022-07-25T12:58:27.465Z,36.07
2022-07-25T13:00:30.614Z,35.95
2022-07-25T13:02:33.240Z,36.24
2022-07-25T13:04:36.235Z,35.92
2022-07-25T13:06:39.206Z,36.33
2022-07-25T13:08:41.919Z,36.15
2022-07-25T13:10:44.567Z,36.36
2022-07-25T13:12:47.750Z,36.39
2022-07-25T13:14:52.373Z,36.52
2022-07-25T13:16:55.449Z,35.67
2022-07-25T13:18:58.176Z,36.03
2022-07-25T13:21:03.552Z,36.55
2022-07-25T13:23:20.763Z,36.75
2022-07-25T13:25:23.653Z,37.05
2022-07-25T13:27:27.283Z,37.08
2022-07-25T13:29:29.986Z,37.12
2022-07-25T13:31:33.716Z,37.28
2022-07-25T13:33:37.084Z,37.18
2022-07-25T13:35:39.989Z,36.77
2022-07-25T13:37:42.791Z,37.32
2022-07-25T13:39:45.491Z,37.31
2022-07-25T13:41:48.965Z,37.38
2022-07-25T13:43:51.585Z,37.06
2022-07-25T13:45:54.342Z,37.71
2022-07-25T13:48:19.052Z,36.64
2022-07-25T13:50:21.286Z,36.49
2022-07-25T13:52:24.070Z,37.19
2022-07-25T13:54:27.643Z,36.97
2022-07-25T13:56:31.463Z,36.62
2022-07-25T13:58:34.180Z,36.64
2022-07-25T14:00:36.844Z,36.58
2022-07-25T14:02:39.607Z,36.56
2022-07-25T14:04:42.226Z,36.69
2022-07-25T14:06:52.287Z,36.84
2022-07-25T14:08:54.988Z,36.78
2022-07-25T14:10:57.842Z,37.14
2022-07-25T14:13:01.186Z,37.26
2022-07-25T14:15:04.649Z,37.32
2022-07-25T14:17:07.287Z,37.25
2022-07-25T14:19:10.797Z,37.07
2022-07-25T14:21:13.589Z,36.90
2022-07-25T14:23:16.555Z,37.07
2022-07-25T14:25:21.375Z,36.60
2022-07-25T14:27:24.718Z,36.86
2022-07-25T14:29:30.543Z,36.92
2022-07-25T14:31:33.516Z,36.61
2022-07-25T14:33:40.063Z,36.61
2022-07-25T14:35:42.786Z,36.16
2022-07-25T14:37:47.532Z,36.21
2022-07-25T14:39:50.619Z,36.53
2022-07-25T14:41:53.430Z,36.27
2022-07-25T14:43:56.010Z,36.27
2022-07-25T14:45:58.703Z,36.09
2022-07-25T14:48:01.454Z,36.00
2022-07-25T14:50:04.515Z,36.15
2022-07-25T14:52:07.231Z,35.79
2022-07-25T14:54:10.107Z,35.91
2022-07-25T14:56:13.308Z,35.79
2022-07-25T14:58:15.897Z,35.64
2022-07-25T15:00:29.172Z,35.96
2022-07-25T15:02:32.417Z,36.08
2022-07-25T15:04:36.087Z,36.15
2022-07-25T15:06:38.906Z,35.84
2022-07-25T15:08:42.855Z,35.54
2022-07-25T15:10:45.645Z,35.81
2022-07-25T15:12:51.474Z,35.30
2022-07-25T15:15:00.585Z,35.72
2022-07-25T15:17:15.475Z,35.64
2022-07-25T15:19:18.609Z,35.20
2022-07-25T15:21:22.373Z,35.09
2022-07-25T15:23:26.311Z,34.51
2022-07-25T15:26:01.613Z,34.74
2022-07-25T15:27:57.294Z,34.45
2022-07-25T15:29:59.919Z,33.24
2022-07-25T15:32:05.558Z,34.42
2022-07-25T15:34:08.516Z,34.20
2022-07-25T15:36:11.141Z,34.48
2022-07-25T15:38:15.936Z,34.31
2022-07-25T15:40:18.577Z,33.96
2022-07-25T15:42:27.049Z,34.28
2022-07-25T15:44:33.143Z,34.86
2022-07-25T15:46:35.846Z,34.92
2022-07-25T15:48:39.468Z,35.20
2022-07-25T15:50:51.579Z,35.22
2022-07-25T15:52:55.413Z,35.48
2022-07-25T15:55:00.248Z,35.51
2022-07-25T15:57:02.961Z,35.44
2022-07-25T15:59:05.807Z,35.68
2022-07-25T16:01:09.479Z,35.48
2022-07-25T16:03:13.881Z,35.12
2022-07-25T16:05:17.320Z,35.25
2022-07-25T16:07:21.142Z,34.40
2022-07-25T16:09:25.488Z,34.95
2022-07-25T16:11:28.208Z,34.65
2022-07-25T16:13:31.373Z,34.86
2022-07-25T16:15:34.104Z,34.50
2022-07-25T16:17:38.646Z,34.32
2022-07-25T16:19:42.346Z,34.01
2022-07-25T16:21:44.979Z,34.44
2022-07-25T16:23:47.669Z,34.35
2022-07-25T16:25:51.477Z,34.26
2022-07-25T16:27:55.006Z,33.94
2022-07-25T16:29:57.866Z,34.32
2022-07-25T16:32:00.908Z,34.25
2022-07-25T16:34:03.566Z,33.79
2022-07-25T16:36:06.718Z,34.32
2022-07-25T16:38:10.387Z,34.11
2022-07-25T16:40:14.491Z,34.15
2022-07-25T16:42:17.279Z,33.75
2022-07-25T16:44:23.145Z,33.89
2022-07-25T16:46:28.511Z,33.31
2022-07-25T16:48:31.361Z,33.33
2022-07-25T16:50:34.105Z,33.78
2022-07-25T16:52:36.705Z,33.34
2022-07-25T16:54:39.321Z,33.38
2022-07-25T16:56:42.107Z,32.91
2022-07-25T16:58:46.597Z,32.99
2022-07-25T17:00:49.420Z,32.52
2022-07-25T17:02:52.032Z,32.25
2022-07-25T17:04:54.929Z,31.47
2022-07-25T17:06:57.642Z,31.59
2022-07-25T17:09:00.527Z,31.72
2022-07-25T17:11:08.522Z,31.32
2022-07-25T17:13:11.309Z,31.45
2022-07-25T17:15:13.923Z,31.20
2022-07-25T17:17:16.525Z,30.82
2022-07-25T17:19:19.139Z,29.90
2022-07-25T17:21:22.170Z,29.27
2022-07-25T17:23:25.264Z,29.07
2022-07-25T17:25:27.869Z,28.53
2022-07-25T17:27:30.765Z,28.40
2022-07-25T17:29:37.461Z,28.19
2022-07-25T17:31:46.232Z,27.75
2022-07-25T17:33:50.461Z,27.51
2022-07-25T17:35:55.207Z,27.33
2022-07-25T17:37:58.037Z,26.98
2022-07-25T17:40:00.748Z,27.14
2022-07-25T17:42:07.276Z,26.91
2022-07-25T17:44:12.064Z,27.09
2022-07-25T17:46:17.960Z,26.48
2022-07-25T17:48:20.759Z,26.86
2022-07-25T17:50:29.158Z,27.06
2022-07-25T17:52:32.402Z,26.22
2022-07-25T17:54:35.067Z,26.62
2022-07-25T17:56:38.338Z,26.49
2022-07-25T17:58:41.186Z,26.03
2022-07-25T18:00:43.930Z,25.99
2022-07-25T18:02:46.728Z,26.12
2022-07-25T18:04:49.448Z,26.55
2022-07-25T18:06:52.238Z,26.27
2022-07-25T18:08:55.188Z,26.68
2022-07-25T18:10:58.029Z,25.63
2022-07-25T18:13:02.056Z,26.13
2022-07-25T18:15:12.423Z,26.79
2022-07-25T18:17:15.671Z,26.81
2022-07-25T18:19:18.234Z,26.76
2022-07-25T18:21:20.956Z,26.63
2022-07-25T18:23:27.015Z,26.46
2022-07-25T18:25:32.268Z,26.32
2022-07-25T18:27:35.126Z,26.40
2022-07-25T18:29:38.917Z,26.20
2022-07-25T18:31:41.635Z,26.01
2022-07-25T18:33:44.363Z,25.85
2022-07-25T18:35:47.090Z,25.58
2022-07-25T18:37:49.761Z,26.13
2022-07-25T18:39:52.480Z,24.73
2022-07-25T18:41:55.116Z,25.94
2022-07-25T18:43:57.829Z,25.75
2022-07-25T18:46:01.624Z,25.35
2022-07-25T18:48:08.267Z,25.87
2022-07-25T18:50:11.159Z,25.13
2022-07-25T18:52:13.723Z,25.15
2022-07-25T18:54:18.410Z,25.64
2022-07-25T18:56:21.366Z,25.31
2022-07-25T18:58:24.913Z,25.62
2022-07-25T19:00:27.683Z,25.31
2022-07-25T19:02:30.365Z,25.48
2022-07-25T19:04:33.119Z,25.17
2022-07-25T19:06:37.224Z,24.89
2022-07-25T19:08:39.966Z,25.13
2022-07-25T19:10:42.595Z,25.29
2022-07-25T19:12:45.234Z,25.05
2022-07-25T19:14:47.867Z,24.98
2022-07-25T19:16:50.573Z,25.17
2022-07-25T19:18:53.349Z,24.37
2022-07-25T19:20:58.615Z,24.79
2022-07-25T19:23:01.414Z,24.37
2022-07-25T19:25:08.224Z,25.09
2022-07-25T19:27:11.194Z,24.37
2022-07-25T19:29:13.794Z,24.80
2022-07-25T19:31:17.230Z,24.82
2022-07-25T19:33:19.858Z,24.99
2022-07-25T19:35:26.227Z,24.80
2022-07-25T19:37:29.581Z,24.73
2022-07-25T19:39:32.189Z,24.04
2022-07-25T19:41:34.799Z,24.50
2022-07-25T19:43:37.473Z,24.87
2022-07-25T19:45:40.394Z,24.96
2022-07-25T19:47:43.686Z,24.24
2022-07-25T19:49:46.417Z,24.71
2022-07-25T19:52:01.541Z,24.50
2022-07-25T19:54:05.306Z,24.82
2022-07-25T19:56:09.354Z,24.95
2022-07-25T19:58:16.738Z,24.87
2022-07-25T20:00:28.398Z,24.05
2022-07-25T20:02:32.362Z,24.06
2022-07-25T20:04:35.054Z,24.84
2022-07-25T20:06:40.003Z,24.92
2022-07-25T20:08:43.036Z,24.17
2022-07-25T20:10:45.776Z,24.28
2022-07-25T20:13:00.975Z,24.51
2022-07-25T20:15:06.703Z,24.25
2022-07-25T20:17:09.491Z,24.35
2022-07-25T20:19:20.042Z,24.37
2022-07-25T20:21:23.347Z,24.20
2022-07-25T20:23:26.042Z,24.13
2022-07-25T20:25:30.757Z,24.47
2022-07-25T20:27:33.742Z,24.46
2022-07-25T20:29:36.670Z,24.33
2022-07-25T20:31:41.469Z,24.28
2022-07-25T20:33:44.927Z,24.43
2022-07-25T20:35:47.823Z,24.45
2022-07-25T20:37:50.393Z,24.12
2022-07-25T20:39:53.733Z,24.42
2022-07-25T20:41:56.777Z,24.07
2022-07-25T20:44:00.517Z,24.09
2022-07-25T20:46:07.538Z,24.21
2022-07-25T20:48:11.854Z,24.39
2022-07-25T20:50:14.685Z,24.02
2022-07-25T20:52:17.348Z,24.32
2022-07-25T20:54:20.426Z,24.00
2022-07-25T20:56:25.232Z,24.34
2022-07-25T20:58:27.900Z,24.50
2022-07-25T21:00:31.494Z,24.57
2022-07-25T21:02:34.245Z,24.59
2022-07-25T21:04:37.579Z,24.51
2022-07-25T21:06:40.207Z,24.37
2022-07-25T21:09:11.917Z,24.46
2022-07-25T21:11:14.769Z,24.21
2022-07-25T21:13:30.848Z,24.34
2022-07-25T21:15:36.646Z,23.78
2022-07-25T21:17:57.777Z,24.12
2022-07-25T21:20:00.532Z,24.18
2022-07-25T21:22:04.078Z,24.32
2022-07-25T21:24:07.170Z,24.20
2022-07-25T21:26:16.139Z,24.31
2022-07-25T21:28:18.988Z,24.07
2022-07-25T21:30:21.759Z,23.84
2022-07-25T21:32:24.420Z,23.81
2022-07-25T21:34:28.132Z,23.95
2022-07-25T21:36:30.820Z,23.22
2022-07-25T21:38:35.124Z,23.85
2022-07-25T21:40:40.113Z,23.25
2022-07-25T21:42:42.895Z,23.91
2022-07-25T21:44:46.182Z,23.69
2022-07-25T21:46:48.802Z,23.77
2022-07-25T21:49:10.302Z,23.85
2022-07-25T21:51:19.275Z,23.76
2022-07-25T21:53:26.678Z,23.72
2022-07-25T21:55:29.292Z,23.59
2022-07-25T21:57:32.285Z,23.51
2022-07-25T21:59:35.009Z,22.94
2022-07-25T22:01:38.668Z,23.68
2022-07-25T22:03:41.395Z,23.36
2022-07-25T22:05:44.061Z,23.39
2022-07-25T22:07:47.526Z,23.44
2022-07-25T22:09:50.248Z,23.13
2022-07-25T22:11:55.441Z,23.44
2022-07-25T22:13:58.290Z,23.33
2022-07-25T22:16:01.315Z,22.90
2022-07-25T22:18:04.108Z,23.39
2022-07-25T22:20:07.679Z,22.86
2022-07-25T22:22:10.299Z,23.36
2022-07-25T22:24:12.894Z,23.04
2022-07-25T22:26:15.619Z,22.43
2022-07-25T22:28:21.208Z,23.16
2022-07-25T22:30:23.976Z,23.19
2022-07-25T22:32:26.601Z,22.58
2022-07-25T22:34:29.238Z,23.07
2022-07-25T22:36:31.840Z,23.16
2022-07-25T22:38:43.647Z,22.76
2022-07-25T22:40:46.836Z,22.56
2022-07-25T22:42:49.471Z,23.08
2022-07-25T22:44:52.099Z,23.06
2022-07-25T22:46:54.750Z,22.87
2022-07-25T22:48:58.743Z,22.84
2022-07-25T22:51:02.539Z,23.32
2022-07-25T22:53:05.411Z,23.16
2022-07-25T22:55:08.897Z,23.25
2022-07-25T22:57:11.541Z,23.32
2022-07-25T22:59:16.091Z,22.86
2022-07-25T23:01:33.423Z,23.17
2022-07-25T23:03:36.173Z,23.00
2022-07-25T23:05:40.636Z,22.07
2022-07-25T23:08:10.467Z,22.67
2022-07-25T23:10:13.409Z,22.50
2022-07-25T23:12:16.020Z,22.26
2022-07-25T23:14:18.713Z,22.50
2022-07-25T23:16:22.094Z,22.22
2022-07-25T23:18:24.931Z,21.73
2022-07-25T23:20:27.513Z,21.92
2022-07-25T23:22:30.464Z,22.27
2022-07-25T23:24:37.367Z,22.35
2022-07-25T23:26:40.524Z,22.52
2022-07-25T23:28:43.139Z,22.51
2022-07-25T23:30:46.018Z,22.51
2022-07-25T23:32:48.690Z,21.89
2022-07-25T23:34:51.297Z,22.03
2022-07-25T23:36:54.030Z,22.19
2022-07-25T23:38:56.648Z,22.10
2022-07-25T23:40:59.263Z,21.95
2022-07-25T23:43:01.876Z,22.22
2022-07-25T23:45:07.062Z,22.45
2022-07-25T23:47:10.787Z,22.34
2022-07-25T23:49:13.985Z,22.46
2022-07-25T23:51:16.847Z,21.80
2022-07-25T23:53:19.449Z,22.55
2022-07-25T23:55:22.202Z,22.49
2022-07-25T23:57:24.804Z,22.59
2022-07-25T23:59:27.406Z,22.57
